Time;durP1;ratioP1;P1;durP2;ratioP2;P2;SDS_P1;SDS_P2;PMS_P1;PMS_P2;Temp;Humidity;BMP_temperature;BMP_pressure;BME280_temperature;BME280_humidity;BME280_pressure;Samples;Min_cycle;Max_cycle;Signal;HPM_P1;HPM_P2
2022/12/29 00:01:16;;;;;;;0.28;0.28;;;10.00;99.90;;;;;;5055712;28;20065;-81
2022/12/29 00:03:45;;;;;;;0.68;0.68;;;9.90;99.90;;;;;;5057771;28;20024;-81
2022/12/29 00:06:10;;;;;;;0.20;0.10;;;9.90;99.90;;;;;;5062049;28;20037;-82
2022/12/29 00:08:39;;;;;;;0.10;0.10;;;9.90;99.90;;;;;;5054522;28;20122;-82
2022/12/29 00:11:10;;;;;;;0.43;0.43;;;9.90;99.90;;;;;;5048539;28;20032;-81
2022/12/29 00:16:20;;;;;;;0.13;0.13;;;9.90;99.90;;;;;;5054033;28;20063;-82
2022/12/29 00:18:46;;;;;;;0.10;0.10;;;9.90;99.90;;;;;;5046957;28;20024;-81
2022/12/29 00:35:08;;;;;;;0.55;0.55;;;9.80;99.90;;;;;;5062141;28;20047;-83
2022/12/29 00:45:52;;;;;;;0.63;0.57;;;9.90;99.90;;;;;;5063870;28;20103;-84
2022/12/29 00:51:02;;;;;;;0.10;0.10;;;10.00;99.90;;;;;;5052246;28;20102;-82
2022/12/29 00:53:28;;;;;;;0.22;0.22;;;10.00;99.90;;;;;;5056900;28;20029;-81
2022/12/29 00:55:53;;;;;;;0.60;0.60;;;10.00;99.90;;;;;;5052861;28;20055;-81
2022/12/29 00:58:19;;;;;;;0.10;0.10;;;9.80;99.90;;;;;;5055903;28;20489;-82
2022/12/29 01:00:45;;;;;;;0.63;0.63;;;9.70;99.90;;;;;;5050516;28;20048;-82
2022/12/29 01:03:10;;;;;;;0.65;0.65;;;9.60;99.90;;;;;;5065750;28;20056;-81
2022/12/29 01:05:37;;;;;;;1.25;0.75;;;9.50;99.90;;;;;;5053807;28;20063;-81
2022/12/29 01:08:02;;;;;;;0.20;0.20;;;9.40;99.90;;;;;;5059084;28;20059;-82
2022/12/29 01:10:28;;;;;;;0.25;0.25;;;9.30;99.90;;;;;;5048209;28;20812;-82
2022/12/29 01:12:55;;;;;;;;;;;9.30;99.90;;;;;;5051006;28;20052;-80
2022/12/29 01:15:21;;;;;;;3.83;1.83;;;9.10;99.90;;;;;;5054009;28;19909;-80
2022/12/29 01:17:47;;;;;;;0.23;0.23;;;9.10;99.90;;;;;;5060279;28;20035;-80
2022/12/29 01:20:13;;;;;;;0.20;0.20;;;9.20;99.90;;;;;;5049356;28;20043;-81
2022/12/29 01:22:39;;;;;;;0.83;0.77;;;9.10;99.90;;;;;;5058704;28;20025;-80
2022/12/29 01:25:06;;;;;;;0.20;0.20;;;9.10;99.90;;;;;;5055656;28;20047;-81
2022/12/29 01:27:31;;;;;;;0.20;0.20;;;9.10;99.90;;;;;;5056739;28;20070;-81
2022/12/29 01:29:57;;;;;;;0.65;0.65;;;9.10;99.90;;;;;;5055937;28;20064;-80
2022/12/29 01:32:23;;;;;;;0.20;0.20;;;9.00;99.90;;;;;;5055873;28;20032;-81
2022/12/29 01:34:49;;;;;;;0.30;0.30;;;9.10;99.90;;;;;;5052758;28;20036;-82
2022/12/29 01:37:14;;;;;;;0.40;0.40;;;9.10;99.90;;;;;;5049216;28;20848;-82
2022/12/29 01:39:40;;;;;;;0.98;0.65;;;9.00;99.90;;;;;;5064262;28;20037;-82
2022/12/29 01:42:17;;;;;;;3.05;2.08;;;9.00;99.90;;;;;;5068161;28;20777;-82
2022/12/29 01:44:49;;;;;;;2.58;2.00;;;9.00;99.90;;;;;;5056284;28;20025;-82
2022/12/29 01:47:33;;;;;;;0.73;0.73;;;8.90;99.90;;;;;;5050348;28;20642;-82
2022/12/29 01:50:08;;;;;;;0.32;0.32;;;8.80;99.90;;;;;;5055927;28;20020;-82
2022/12/29 01:52:36;;;;;;;0.30;0.30;;;8.90;99.90;;;;;;5068610;28;20071;-82
2022/12/29 01:55:04;;;;;;;0.20;0.20;;;8.80;99.90;;;;;;5056989;28;20084;-82
2022/12/29 01:57:33;;;;;;;0.35;0.35;;;8.90;99.90;;;;;;5053649;28;20044;-82
2022/12/29 02:00:07;;;;;;;0.20;0.20;;;9.10;99.90;;;;;;5066790;28;20053;-82
2022/12/29 02:02:33;;;;;;;0.88;0.20;;;9.10;99.90;;;;;;5049488;28;20037;-82
2022/12/29 02:05:05;;;;;;;0.55;0.55;;;9.00;99.90;;;;;;5058609;28;20029;-81
2022/12/29 02:07:31;;;;;;;0.52;0.52;;;8.90;99.90;;;;;;5080488;28;20059;-83
2022/12/29 02:09:57;;;;;;;0.57;0.50;;;9.00;99.90;;;;;;5058294;28;20067;-83
2022/12/29 02:12:24;;;;;;;0.57;0.57;;;9.00;99.90;;;;;;5062314;28;20424;-81
2022/12/29 02:14:55;;;;;;;2.30;1.92;;;9.20;99.90;;;;;;5053896;28;20106;-82
2022/12/29 02:17:46;;;;;;;0.47;0.47;;;9.40;99.90;;;;;;5067671;28;20116;-82
2022/12/29 02:20:36;;;;;;;0.28;0.28;;;9.50;99.90;;;;;;5057804;28;20120;-84
2022/12/29 02:23:50;;;;;;;0.98;0.93;;;9.70;99.90;;;;;;5061329;28;20167;-82
2022/12/29 02:27:03;;;;;;;1.45;0.90;;;9.60;99.90;;;;;;5043902;28;20037;-82
2022/12/29 02:29:41;;;;;;;0.10;0.10;;;9.50;99.90;;;;;;5026369;28;20797;-83
2022/12/29 02:32:15;;;;;;;8.57;0.68;;;9.50;99.90;;;;;;5047406;28;20067;-83
2022/12/29 02:35:14;;;;;;;0.55;0.55;;;9.40;99.90;;;;;;5054190;28;20043;-82
2022/12/29 02:37:55;;;;;;;0.70;0.70;;;9.20;99.90;;;;;;5053146;28;20024;-83
2022/12/29 02:40:58;;;;;;;0.32;0.32;;;9.30;99.90;;;;;;5067843;28;20046;-84
2022/12/29 02:43:41;;;;;;;0.30;0.30;;;9.30;99.90;;;;;;5050247;28;20075;-85
2022/12/29 02:46:12;;;;;;;0.30;0.30;;;9.40;99.90;;;;;;5056502;28;20033;-85
2022/12/29 02:48:46;;;;;;;0.38;0.32;;;9.60;99.90;;;;;;5051953;28;20036;-84
2022/12/29 02:51:31;;;;;;;0.63;0.63;;;9.70;99.90;;;;;;5059634;28;20024;-82
2022/12/29 02:56:42;;;;;;;0.20;0.20;;;9.80;99.90;;;;;;5051332;28;20031;-82
2022/12/29 02:59:09;;;;;;;0.20;0.20;;;9.80;99.90;;;;;;5063599;28;20089;-82
2022/12/29 03:02:16;;;;;;;;;;;9.90;99.90;;;;;;5060510;28;20513;-82
2022/12/29 03:04:45;;;;;;;0.30;0.30;;;9.90;99.90;;;;;;5049159;28;19915;-83
2022/12/29 03:07:11;;;;;;;0.55;0.55;;;9.90;99.90;;;;;;5061014;28;20802;-83
2022/12/29 03:10:15;;;;;;;0.10;0.10;;;9.80;99.90;;;;;;5052489;28;20037;-82
2022/12/29 03:16:05;;;;;;;0.63;0.63;;;9.90;99.90;;;;;;5053741;28;20032;-80
2022/12/29 03:18:55;;;;;;;0.30;0.30;;;9.90;99.90;;;;;;5055082;28;20143;-80
2022/12/29 03:24:22;;;;;;;0.63;0.63;;;10.00;99.90;;;;;;5058679;28;20206;-81
2022/12/29 03:26:52;;;;;;;0.45;0.45;;;10.00;99.90;;;;;;5053767;28;20033;-82
2022/12/29 03:29:20;;;;;;;0.95;0.60;;;10.10;99.90;;;;;;5050311;28;20116;-82
2022/12/29 03:31:48;;;;;;;0.45;0.45;;;10.10;99.90;;;;;;5052935;28;20048;-82
2022/12/29 03:34:16;;;;;;;4.85;2.33;;;10.20;99.90;;;;;;5056175;28;20029;-82
2022/12/29 03:36:53;;;;;;;0.75;0.75;;;10.10;99.90;;;;;;5061213;28;20029;-82
2022/12/29 03:39:22;;;;;;;3.08;1.33;;;10.10;99.90;;;;;;5056305;28;20063;-83
2022/12/29 03:41:54;;;;;;;3.90;0.93;;;10.10;99.90;;;;;;5051259;28;20501;-82
2022/12/29 03:44:19;;;;;;;0.60;0.60;;;10.00;99.90;;;;;;5049476;28;20086;-82
2022/12/29 03:46:45;;;;;;;2.25;1.27;;;10.10;99.90;;;;;;5064547;28;20028;-82
2022/12/29 03:49:11;;;;;;;1.48;1.38;;;10.10;99.90;;;;;;5059543;28;20036;-84
2022/12/29 03:51:36;;;;;;;3.72;2.00;;;10.10;99.90;;;;;;5056987;28;20032;-82
2022/12/29 03:54:02;;;;;;;0.40;0.40;;;10.10;99.90;;;;;;5057583;28;20028;-82
2022/12/29 03:56:28;;;;;;;0.20;0.20;;;10.10;99.90;;;;;;5060756;28;20021;-82
2022/12/29 03:58:54;;;;;;;0.20;0.20;;;10.10;99.90;;;;;;5063300;28;20316;-83
2022/12/29 04:01:20;;;;;;;0.10;0.10;;;10.00;99.90;;;;;;5060539;28;20412;-83
2022/12/29 04:03:45;;;;;;;0.30;0.30;;;10.00;99.90;;;;;;5053167;28;20456;-82
2022/12/29 04:06:11;;;;;;;0.40;0.40;;;10.00;99.90;;;;;;5057179;28;20032;-82
2022/12/29 04:08:37;;;;;;;0.30;0.30;;;9.90;99.90;;;;;;5059443;28;20044;-82
2022/12/29 04:11:03;;;;;;;0.17;0.17;;;9.90;99.90;;;;;;5060636;28;20041;-85
2022/12/29 04:13:29;;;;;;;0.83;0.77;;;9.90;99.90;;;;;;5060756;28;20078;-84
2022/12/29 04:15:54;;;;;;;0.17;0.17;;;9.80;99.90;;;;;;5063123;28;20274;-86
2022/12/29 04:18:20;;;;;;;0.98;0.60;;;9.90;99.90;;;;;;5058277;28;20056;-83
2022/12/29 04:21:02;;;;;;;0.30;0.25;;;9.80;99.90;;;;;;5083775;28;20611;-83
2022/12/29 04:23:29;;;;;;;1.75;1.23;;;9.90;99.90;;;;;;5046919;28;20051;-83
2022/12/29 04:25:55;;;;;;;0.25;0.20;;;9.80;99.90;;;;;;5064464;28;20111;-84
2022/12/29 04:28:20;;;;;;;1.58;0.63;;;9.90;99.90;;;;;;5057292;28;20538;-83
2022/12/29 04:30:46;;;;;;;0.32;0.32;;;9.90;99.90;;;;;;5058400;28;20506;-83
2022/12/29 04:33:12;;;;;;;0.37;0.37;;;9.90;99.90;;;;;;5054874;28;20571;-83
2022/12/29 04:35:38;;;;;;;0.45;0.45;;;9.90;99.90;;;;;;5047951;28;20037;-81
2022/12/29 04:38:04;;;;;;;1.27;1.27;;;9.90;99.90;;;;;;5058947;28;20853;-81
2022/12/29 04:40:30;;;;;;;0.10;0.10;;;9.90;99.90;;;;;;5053712;28;20555;-82
2022/12/29 04:42:56;;;;;;;0.32;0.32;;;9.90;99.90;;;;;;5051808;28;20035;-82
2022/12/29 04:45:21;;;;;;;0.10;0.10;;;9.90;99.90;;;;;;5047449;28;20106;-82
2022/12/29 04:47:47;;;;;;;0.52;0.52;;;9.90;99.90;;;;;;5048234;28;20510;-84
2022/12/29 04:50:13;;;;;;;3.22;1.17;;;9.90;99.90;;;;;;5058137;28;20056;-84
2022/12/29 04:52:38;;;;;;;0.65;0.30;;;9.90;99.90;;;;;;5051710;28;20110;-82
2022/12/29 04:55:05;;;;;;;0.52;0.52;;;10.00;99.90;;;;;;5057810;28;20052;-82
2022/12/29 04:57:31;;;;;;;;;;;10.00;99.90;;;;;;5063794;28;20074;-82
2022/12/29 04:59:57;;;;;;;0.10;0.10;;;10.00;99.90;;;;;;5058320;28;20611;-83
2022/12/29 05:02:23;;;;;;;0.10;0.10;;;10.00;99.90;;;;;;5058911;28;20123;-82
2022/12/29 05:04:48;;;;;;;0.65;0.38;;;10.00;99.90;;;;;;5055767;28;20128;-83
2022/12/29 05:07:14;;;;;;;0.15;0.15;;;10.00;99.90;;;;;;5061634;28;20060;-83
2022/12/29 05:09:40;;;;;;;0.27;0.27;;;10.00;99.90;;;;;;5049218;28;20028;-82
2022/12/29 05:12:06;;;;;;;0.35;0.35;;;10.00;99.90;;;;;;5059056;28;20044;-82
2022/12/29 05:14:32;;;;;;;0.30;0.30;;;10.00;99.90;;;;;;5058258;28;20029;-82
2022/12/29 05:16:58;;;;;;;0.10;0.10;;;10.00;99.90;;;;;;5058782;28;20031;-83
2022/12/29 05:19:24;;;;;;;2.60;0.73;;;10.00;99.90;;;;;;5053239;28;20025;-83
2022/12/29 05:21:49;;;;;;;0.10;0.10;;;9.90;99.90;;;;;;5063869;28;20862;-83
2022/12/29 05:24:15;;;;;;;0.38;0.38;;;10.00;99.90;;;;;;5054400;28;20115;-84
2022/12/29 05:26:41;;;;;;;0.20;0.20;;;10.00;99.90;;;;;;5067234;28;20013;-83
2022/12/29 05:29:07;;;;;;;0.28;0.28;;;10.10;99.90;;;;;;5051837;28;20033;-82
2022/12/29 05:31:35;;;;;;;0.30;0.30;;;10.10;99.90;;;;;;5062353;28;20042;-83
2022/12/29 05:34:01;;;;;;;0.50;0.50;;;10.00;99.90;;;;;;5062576;28;20035;-83
2022/12/29 05:36:27;;;;;;;0.63;0.63;;;10.00;99.90;;;;;;5051479;28;20044;-83
2022/12/29 05:38:53;;;;;;;2.55;0.52;;;10.10;99.90;;;;;;5053949;28;20086;-83
2022/12/29 05:41:19;;;;;;;0.40;0.40;;;10.10;99.90;;;;;;5069458;28;20029;-82
2022/12/29 05:43:44;;;;;;;0.30;0.30;;;9.90;99.90;;;;;;5062104;28;20067;-82
2022/12/29 05:46:10;;;;;;;0.20;0.20;;;10.00;99.90;;;;;;5064973;28;20083;-80
2022/12/29 05:48:36;;;;;;;0.40;0.40;;;9.90;99.90;;;;;;5056241;28;20029;-82
2022/12/29 05:51:01;;;;;;;5.90;1.80;;;9.90;99.90;;;;;;5056240;28;20059;-84
2022/12/29 05:53:27;;;;;;;1.88;0.82;;;9.90;99.90;;;;;;5063165;28;20029;-84
2022/12/29 05:55:53;;;;;;;0.28;0.28;;;10.00;99.90;;;;;;5065131;28;20035;-83
2022/12/29 05:58:19;;;;;;;0.15;0.15;;;10.00;99.90;;;;;;5065928;28;20040;-84
2022/12/29 06:00:45;;;;;;;0.30;0.30;;;9.90;99.90;;;;;;5055105;28;20029;-84
2022/12/29 06:03:11;;;;;;;1.15;1.02;;;9.80;99.90;;;;;;5055889;28;20024;-86
2022/12/29 06:05:37;;;;;;;1.25;0.85;;;9.90;99.90;;;;;;5054572;28;20056;-86
2022/12/29 06:08:03;;;;;;;0.43;0.43;;;9.80;99.90;;;;;;5050903;28;20049;-84
2022/12/29 06:10:29;;;;;;;0.37;0.37;;;9.90;99.90;;;;;;5050045;28;20017;-88
2022/12/29 06:12:54;;;;;;;0.32;0.32;;;9.90;99.90;;;;;;5059272;28;20538;-87
2022/12/29 06:15:20;;;;;;;0.17;0.17;;;9.90;99.90;;;;;;5062492;28;20021;-88
2022/12/29 06:17:46;;;;;;;0.20;0.20;;;9.90;99.90;;;;;;5052220;28;20621;-87
2022/12/29 06:20:12;;;;;;;0.63;0.63;;;9.90;99.90;;;;;;5049550;28;20040;-87
2022/12/29 06:22:37;;;;;;;0.15;0.15;;;9.90;99.90;;;;;;5050379;28;20033;-88
2022/12/29 06:25:05;;;;;;;2.38;0.80;;;9.90;99.90;;;;;;5055649;28;20033;-83
2022/12/29 06:27:31;;;;;;;0.65;0.60;;;9.90;99.90;;;;;;5054181;28;20029;-83
2022/12/29 06:29:57;;;;;;;0.47;0.25;;;9.90;99.90;;;;;;5050901;28;20040;-83
2022/12/29 06:32:23;;;;;;;1.20;1.10;;;9.80;99.90;;;;;;5063531;28;20029;-83
2022/12/29 06:34:48;;;;;;;1.10;0.90;;;9.90;99.90;;;;;;5054345;28;20515;-81
2022/12/29 06:37:14;;;;;;;0.15;0.15;;;9.80;99.90;;;;;;5049193;28;20032;-79
2022/12/29 06:39:40;;;;;;;0.40;0.40;;;9.80;99.90;;;;;;5048495;28;20462;-82
2022/12/29 06:42:06;;;;;;;0.45;0.45;;;9.80;99.90;;;;;;5083987;28;20705;-83
2022/12/29 06:44:31;;;;;;;0.20;0.20;;;9.90;99.90;;;;;;5052441;28;20105;-84
2022/12/29 06:46:57;;;;;;;0.77;0.77;;;9.80;99.90;;;;;;5052587;28;20027;-84
2022/12/29 06:49:23;;;;;;;0.57;0.57;;;9.70;99.90;;;;;;5069941;28;20029;-85
2022/12/29 06:51:49;;;;;;;0.30;0.30;;;9.70;99.90;;;;;;5059649;28;20131;-83
2022/12/29 06:54:15;;;;;;;0.55;0.32;;;9.80;99.90;;;;;;5053334;28;20113;-84
2022/12/29 06:56:40;;;;;;;0.10;0.10;;;9.80;99.90;;;;;;5053566;28;20107;-83
2022/12/29 06:59:06;;;;;;;0.45;0.45;;;9.80;99.90;;;;;;5065175;28;20100;-81
2022/12/29 07:01:32;;;;;;;0.35;0.35;;;9.80;99.90;;;;;;5069109;28;20031;-81
2022/12/29 07:03:58;;;;;;;0.50;0.50;;;9.90;99.90;;;;;;5058943;28;20107;-82
2022/12/29 07:06:23;;;;;;;0.88;0.88;;;9.80;99.90;;;;;;5068179;28;20020;-83
2022/12/29 07:08:49;;;;;;;0.10;0.10;;;9.90;99.90;;;;;;5057861;28;20045;-83
2022/12/29 07:11:15;;;;;;;1.67;1.35;;;9.90;99.90;;;;;;5058131;28;20079;-83
2022/12/29 07:13:41;;;;;;;0.35;0.35;;;9.80;99.90;;;;;;5060553;28;20139;-81
2022/12/29 07:16:08;;;;;;;2.67;2.47;;;9.80;99.90;;;;;;5057115;28;20086;-86
2022/12/29 07:18:35;;;;;;;0.20;0.20;;;9.80;99.90;;;;;;5049038;28;20531;-84
2022/12/29 07:21:01;;;;;;;8.13;1.40;;;9.80;99.90;;;;;;5056511;28;20411;-84
2022/12/29 07:23:27;;;;;;;2.50;1.35;;;9.80;99.90;;;;;;5050042;28;20275;-90
2022/12/29 07:26:04;;;;;;;1.38;0.80;;;9.80;99.90;;;;;;5057877;28;20033;-86
2022/12/29 07:28:30;;;;;;;13.15;0.80;;;9.80;99.90;;;;;;5064704;28;20112;-81
2022/12/29 07:30:55;;;;;;;4.33;2.57;;;9.80;99.90;;;;;;5067138;28;20033;-84
2022/12/29 07:33:21;;;;;;;0.38;0.38;;;9.80;99.90;;;;;;5063312;28;20025;-86
2022/12/29 07:35:47;;;;;;;1.00;1.00;;;9.80;99.90;;;;;;5056062;28;20610;-84
2022/12/29 07:38:13;;;;;;;0.40;0.40;;;9.80;99.90;;;;;;5054571;28;20139;-81
2022/12/29 07:40:38;;;;;;;2.15;1.05;;;9.90;99.90;;;;;;5060015;28;20095;-86
2022/12/29 07:43:04;;;;;;;1.58;1.45;;;9.90;99.90;;;;;;5063019;28;20884;-85
2022/12/29 07:45:30;;;;;;;1.25;0.75;;;9.90;99.90;;;;;;5054631;28;20033;-86
2022/12/29 07:47:55;;;;;;;0.20;0.20;;;9.90;99.90;;;;;;5058748;28;20569;-86
2022/12/29 07:50:21;;;;;;;0.47;0.47;;;9.90;99.90;;;;;;5050791;28;20033;-86
2022/12/29 07:52:47;;;;;;;0.68;0.52;;;9.80;99.90;;;;;;5051084;28;20039;-80
2022/12/29 07:55:14;;;;;;;8.57;1.77;;;9.90;99.90;;;;;;5048755;28;20308;-80
2022/12/29 07:57:40;;;;;;;1.63;1.02;;;9.90;99.90;;;;;;5049915;28;20574;-83
2022/12/29 08:00:06;;;;;;;6.40;2.50;;;9.90;99.90;;;;;;5047986;28;20484;-82
2022/12/29 08:02:32;;;;;;;0.65;0.65;;;9.90;99.90;;;;;;5048925;28;20168;-80
2022/12/29 08:04:57;;;;;;;1.98;1.80;;;9.90;99.90;;;;;;5052421;28;20063;-78
2022/12/29 08:07:23;;;;;;;2.53;2.20;;;9.90;99.90;;;;;;5048939;28;20051;-80
2022/12/29 08:09:49;;;;;;;0.60;0.60;;;9.90;99.90;;;;;;5048575;28;20032;-80
2022/12/29 08:12:14;;;;;;;0.30;0.30;;;9.90;99.90;;;;;;5045741;28;20029;-80
2022/12/29 08:14:40;;;;;;;0.28;0.28;;;9.90;99.90;;;;;;5055056;28;20056;-80
2022/12/29 08:17:06;;;;;;;0.85;0.57;;;10.00;99.90;;;;;;5048077;28;20421;-80
2022/12/29 08:19:31;;;;;;;0.88;0.38;;;9.90;99.90;;;;;;5050088;28;20021;-80
2022/12/29 08:21:57;;;;;;;0.40;0.40;;;9.90;99.90;;;;;;5049162;28;20020;-80
2022/12/29 08:24:23;;;;;;;1.25;1.17;;;10.00;99.90;;;;;;5049131;28;20107;-81
2022/12/29 08:26:48;;;;;;;1.55;1.38;;;10.00;99.90;;;;;;5047527;28;20118;-80
2022/12/29 08:29:14;;;;;;;1.42;1.33;;;10.00;99.90;;;;;;5049649;28;20040;-80
2022/12/29 08:31:40;;;;;;;0.73;0.73;;;9.90;99.90;;;;;;5050803;28;20035;-85
2022/12/29 08:34:06;;;;;;;0.52;0.52;;;9.90;99.90;;;;;;5052567;28;20029;-81
2022/12/29 08:36:32;;;;;;;0.13;0.13;;;9.90;99.90;;;;;;5049349;28;20071;-80
2022/12/29 08:38:58;;;;;;;0.43;0.43;;;9.90;99.90;;;;;;5046429;28;20722;-80
2022/12/29 08:41:23;;;;;;;0.30;0.30;;;9.90;99.90;;;;;;5047444;28;20555;-80
2022/12/29 08:43:50;;;;;;;0.40;0.40;;;10.00;99.90;;;;;;5044569;28;20033;-79
2022/12/29 08:46:16;;;;;;;0.17;0.17;;;10.00;99.90;;;;;;5047100;28;20025;-81
2022/12/29 08:48:42;;;;;;;0.10;0.10;;;10.00;99.90;;;;;;5048838;28;20040;-81
2022/12/29 08:51:08;;;;;;;0.28;0.28;;;10.00;99.90;;;;;;5059050;28;20035;-81
2022/12/29 08:53:34;;;;;;;0.60;0.60;;;10.00;99.90;;;;;;5049066;28;20056;-82
2022/12/29 08:56:00;;;;;;;0.73;0.32;;;10.10;99.90;;;;;;5048972;28;20068;-82
2022/12/29 08:58:26;;;;;;;0.47;0.47;;;10.20;99.90;;;;;;5061315;28;20043;-82
2022/12/29 09:00:57;;;;;;;2.53;1.43;;;10.20;99.90;;;;;;5062586;28;20032;-81
2022/12/29 09:03:23;;;;;;;6.47;0.68;;;10.30;99.90;;;;;;5055472;28;20116;-84
2022/12/29 09:05:51;;;;;;;0.20;0.20;;;10.30;99.90;;;;;;5064733;28;20033;-83
2022/12/29 09:08:16;;;;;;;1.08;0.82;;;10.20;99.90;;;;;;5062961;28;20061;-81
2022/12/29 09:10:43;;;;;;;3.63;1.65;;;10.20;99.90;;;;;;5053021;28;20021;-81
2022/12/29 09:13:10;;;;;;;0.70;0.70;;;10.20;99.90;;;;;;5058136;28;20872;-83
2022/12/29 09:15:35;;;;;;;0.93;0.93;;;10.20;99.90;;;;;;5063779;28;20032;-82
2022/12/29 09:18:01;;;;;;;3.78;0.45;;;10.20;99.90;;;;;;5061711;28;20089;-84
2022/12/29 09:20:27;;;;;;;0.40;0.40;;;10.10;99.90;;;;;;5050226;28;20094;-81
2022/12/29 09:22:53;;;;;;;0.20;0.20;;;10.10;99.90;;;;;;5058315;28;20058;-80
2022/12/29 09:25:19;;;;;;;0.60;0.60;;;10.10;99.90;;;;;;5057766;28;20033;-83
2022/12/29 09:27:47;;;;;;;1.75;1.13;;;10.10;99.90;;;;;;5062127;28;20678;-80
2022/12/29 09:30:14;;;;;;;0.63;0.63;;;10.20;99.90;;;;;;5057357;28;20025;-82
2022/12/29 09:32:40;;;;;;;0.50;0.50;;;10.20;99.90;;;;;;5062360;28;20043;-83
2022/12/29 09:35:06;;;;;;;0.32;0.28;;;10.30;99.90;;;;;;5063192;28;20725;-80
2022/12/29 09:37:32;;;;;;;0.43;0.43;;;10.30;99.90;;;;;;5060269;28;20036;-79
2022/12/29 09:39:58;;;;;;;0.65;0.57;;;10.30;99.90;;;;;;5048561;28;20044;-79
2022/12/29 09:42:24;;;;;;;0.77;0.75;;;10.30;99.90;;;;;;5047444;28;20033;-79
2022/12/29 09:45:02;;;;;;;0.70;0.70;;;10.40;99.90;;;;;;5054911;28;20036;-78
2022/12/29 09:47:29;;;;;;;1.08;1.08;;;10.40;99.90;;;;;;5063090;28;20029;-78
2022/12/29 09:50:16;;;;;;;0.28;0.28;;;10.30;99.90;;;;;;5053368;28;20110;-80
2022/12/29 09:53:01;;;;;;;0.20;0.20;;;10.20;99.90;;;;;;5053181;28;20013;-80
2022/12/29 09:55:47;;;;;;;0.30;0.30;;;10.20;99.90;;;;;;5054961;28;20843;-78
2022/12/29 09:58:29;;;;;;;0.82;0.82;;;10.20;99.90;;;;;;5064282;28;20043;-76
2022/12/29 10:01:06;;;;;;;0.63;0.63;;;10.30;99.90;;;;;;5058657;28;20039;-79
2022/12/29 10:03:40;;;;;;;0.45;0.45;;;10.30;99.90;;;;;;5068942;28;20468;-79
2022/12/29 10:06:24;;;;;;;0.65;0.65;;;10.30;99.90;;;;;;5061174;28;20037;-85
2022/12/29 10:08:53;;;;;;;1.10;0.77;;;10.30;99.90;;;;;;5065980;28;20052;-79
2022/12/29 10:11:56;;;;;;;1.40;1.20;;;10.40;99.90;;;;;;5062480;28;20082;-79
2022/12/29 10:14:52;;;;;;;0.35;0.35;;;10.40;99.90;;;;;;5055286;28;20024;-77
2022/12/29 10:17:36;;;;;;;0.47;0.30;;;10.40;99.90;;;;;;5059884;28;20039;-78
2022/12/29 10:20:02;;;;;;;1.00;0.95;;;10.40;99.90;;;;;;5056792;28;20031;-80
2022/12/29 10:22:56;;;;;;;1.13;0.25;;;10.40;99.90;;;;;;5057787;28;20608;-77
2022/12/29 10:25:25;;;;;;;0.32;0.32;;;10.40;99.90;;;;;;5052083;28;20036;-79
2022/12/29 10:27:54;;;;;;;0.20;0.20;;;10.50;99.90;;;;;;5061276;28;20096;-79
2022/12/29 10:30:20;;;;;;;0.43;0.43;;;10.60;99.90;;;;;;5060558;28;20505;-79
2022/12/29 10:32:57;;;;;;;0.20;0.20;;;10.60;99.90;;;;;;5063586;28;20067;-80
2022/12/29 10:35:30;;;;;;;0.30;0.30;;;10.70;99.90;;;;;;5056929;28;20063;-80
2022/12/29 10:38:12;;;;;;;0.45;0.45;;;10.70;99.90;;;;;;5052783;28;20032;-82
2022/12/29 10:40:40;;;;;;;0.20;0.20;;;10.70;99.90;;;;;;5060479;28;20028;-82
2022/12/29 10:43:26;;;;;;;3.63;1.05;;;10.60;99.90;;;;;;5064400;28;20143;-80
2022/12/29 10:45:56;;;;;;;0.20;0.20;;;10.60;99.90;;;;;;5053391;28;20036;-78
2022/12/29 10:48:29;;;;;;;2.10;0.52;;;10.60;99.90;;;;;;5055254;28;20557;-83
2022/12/29 10:50:58;;;;;;;1.60;1.33;;;10.60;99.90;;;;;;5054628;28;20932;-82
2022/12/29 10:53:31;;;;;;;5.05;2.95;;;10.60;99.90;;;;;;5056353;28;20040;-86
2022/12/29 10:55:59;;;;;;;4.03;3.65;;;10.50;99.90;;;;;;5053802;28;20079;-82
2022/12/29 10:58:26;;;;;;;5.15;4.53;;;10.50;99.90;;;;;;5054305;28;20264;-79
2022/12/29 11:00:53;;;;;;;3.60;3.30;;;10.50;99.90;;;;;;5062312;28;20556;-80
2022/12/29 11:03:39;;;;;;;0.57;0.57;;;10.60;99.90;;;;;;5059730;28;20147;-78
2022/12/29 11:06:13;;;;;;;0.77;0.77;;;10.60;99.90;;;;;;5049464;28;20052;-77
2022/12/29 11:08:51;;;;;;;0.75;0.75;;;10.60;99.90;;;;;;5059910;28;20143;-80
2022/12/29 11:11:25;;;;;;;0.43;0.43;;;10.60;99.90;;;;;;5047375;28;20025;-80
2022/12/29 11:13:57;;;;;;;0.63;0.63;;;10.60;99.90;;;;;;5051560;28;20542;-81
2022/12/29 11:16:32;;;;;;;8.93;7.95;;;10.60;99.90;;;;;;5056950;28;20024;-80
2022/12/29 11:18:58;;;;;;;45.33;22.30;;;10.50;99.90;;;;;;5059433;28;20044;-80
2022/12/29 11:21:32;;;;;;;9.90;3.37;;;10.50;99.90;;;;;;5060063;28;20111;-80
2022/12/29 11:24:04;;;;;;;3.88;3.22;;;10.60;99.90;;;;;;5053284;28;20819;-81
2022/12/29 11:26:31;;;;;;;1.17;1.08;;;10.60;99.90;;;;;;5055945;28;20056;-82
2022/12/29 11:29:16;;;;;;;0.45;0.45;;;10.70;99.90;;;;;;5061921;28;20055;-81
2022/12/29 11:31:43;;;;;;;1.02;0.93;;;10.80;99.90;;;;;;5051269;28;20042;-80
2022/12/29 11:34:09;;;;;;;5.28;1.42;;;10.80;99.90;;;;;;5057156;28;20029;-79
2022/12/29 11:36:35;;;;;;;1.55;0.60;;;10.80;99.90;;;;;;5064079;28;20116;-79
2022/12/29 11:39:02;;;;;;;0.60;0.60;;;10.80;99.90;;;;;;5063922;28;20024;-80
2022/12/29 11:41:32;;;;;;;3.63;1.33;;;10.90;99.90;;;;;;5062594;28;20032;-80
2022/12/29 11:44:01;;;;;;;2.22;1.25;;;10.90;99.90;;;;;;5058076;28;20025;-80
2022/12/29 11:46:37;;;;;;;1.67;0.90;;;11.00;99.90;;;;;;5059959;28;20032;-79
2022/12/29 11:49:04;;;;;;;5.22;1.88;;;11.30;99.90;;;;;;5059189;28;20079;-81
2022/12/29 11:51:39;;;;;;;0.73;0.73;;;11.30;99.90;;;;;;5063773;28;20029;-81
2022/12/29 11:54:05;;;;;;;0.40;0.40;;;11.10;99.90;;;;;;5059225;28;20865;-79
2022/12/29 11:56:36;;;;;;;0.10;0.10;;;11.00;99.90;;;;;;5063908;28;20056;-80
2022/12/29 11:59:29;;;;;;;0.17;0.17;;;11.10;99.90;;;;;;5063639;28;20028;-79
2022/12/29 12:01:57;;;;;;;0.52;0.45;;;11.30;99.90;;;;;;5061013;28;20083;-80
2022/12/29 12:04:30;;;;;;;0.38;0.38;;;11.40;99.90;;;;;;5063521;28;20661;-80
2022/12/29 12:06:55;;;;;;;0.22;0.22;;;11.30;99.90;;;;;;5064252;28;20047;-80
2022/12/29 12:09:45;;;;;;;0.52;0.30;;;11.40;99.90;;;;;;5063292;28;20020;-79
2022/12/29 12:12:29;;;;;;;0.40;0.40;;;11.40;99.90;;;;;;5050480;28;20037;-83
2022/12/29 12:14:59;;;;;;;0.28;0.28;;;11.20;99.90;;;;;;5055771;28;20025;-81
2022/12/29 12:17:53;;;;;;;0.30;0.30;;;11.20;99.90;;;;;;5059751;28;20048;-83
2022/12/29 12:20:31;;;;;;;5.72;0.60;;;11.10;99.90;;;;;;5053949;28;20025;-81
2022/12/29 12:23:00;;;;;;;0.30;0.30;;;11.10;99.90;;;;;;5059988;28;20051;-81
2022/12/29 12:25:38;;;;;;;0.50;0.50;;;11.20;99.90;;;;;;5056936;28;20029;-81
2022/12/29 12:28:20;;;;;;;0.35;0.35;;;11.20;99.90;;;;;;5056314;28;20368;-80
2022/12/29 12:30:50;;;;;;;0.20;0.20;;;11.20;99.90;;;;;;5056894;28;20025;-81
2022/12/29 12:33:29;;;;;;;0.30;0.20;;;11.10;99.90;;;;;;5057612;28;20025;-80
2022/12/29 12:36:18;;;;;;;0.90;0.85;;;11.10;99.90;;;;;;5057854;28;20115;-81
2022/12/29 12:39:17;;;;;;;1.60;1.00;;;11.00;99.90;;;;;;5053779;28;20029;-86
2022/12/29 12:42:18;;;;;;;1.25;0.95;;;11.10;99.90;;;;;;5048693;28;20044;-88
2022/12/29 12:45:21;;;;;;;0.32;0.32;;;11.10;99.90;;;;;;5050759;28;20036;-80
2022/12/29 12:47:58;;;;;;;0.25;0.25;;;11.10;99.90;;;;;;5056114;28;20047;-86
2022/12/29 12:50:43;;;;;;;1.55;1.02;;;11.10;99.90;;;;;;5061354;28;20024;-84
2022/12/29 12:53:22;;;;;;;0.63;0.63;;;11.00;99.90;;;;;;5064259;28;20525;-84
2022/12/29 12:55:57;;;;;;;1.00;0.85;;;11.10;99.90;;;;;;5058043;28;20025;-84
2022/12/29 12:58:45;;;;;;;1.25;0.80;;;11.10;99.90;;;;;;5051844;28;20064;-82
2022/12/29 13:01:13;;;;;;;8.80;4.47;;;11.00;99.90;;;;;;5062836;28;20028;-83
2022/12/29 13:04:17;;;;;;;3.40;2.55;;;11.10;99.90;;;;;;5061892;28;20039;-83
2022/12/29 13:07:15;;;;;;;2.92;0.82;;;11.10;99.90;;;;;;5062251;28;20033;-85
2022/12/29 13:10:01;;;;;;;0.75;0.75;;;11.10;99.90;;;;;;5050696;28;20081;-85
2022/12/29 13:12:39;;;;;;;0.95;0.90;;;11.10;99.90;;;;;;5041828;28;20047;-86
2022/12/29 13:15:14;;;;;;;0.20;0.20;;;11.10;99.90;;;;;;5053201;28;20535;-86
2022/12/29 13:17:50;;;;;;;1.33;0.57;;;11.10;99.90;;;;;;5060693;28;20048;-84
2022/12/29 13:20:16;;;;;;;5.00;2.15;;;11.10;99.90;;;;;;5062360;28;20044;-87
2022/12/29 13:22:48;;;;;;;0.52;0.52;;;11.10;99.90;;;;;;5062920;28;20032;-87
2022/12/29 13:25:41;;;;;;;0.40;0.38;;;11.00;99.90;;;;;;5060375;28;20036;-86
2022/12/29 13:28:31;;;;;;;1.15;1.05;;;11.00;99.90;;;;;;5058214;28;20840;-86
2022/12/29 13:31:21;;;;;;;4.97;2.10;;;11.00;99.90;;;;;;5072801;28;20027;-85
2022/12/29 13:34:09;;;;;;;2.42;2.13;;;10.90;99.90;;;;;;5077719;28;20570;-84
2022/12/29 13:36:45;;;;;;;2.28;1.45;;;10.90;99.90;;;;;;5064823;28;20036;-84
2022/12/29 13:39:19;;;;;;;0.50;0.50;;;10.80;99.90;;;;;;5059035;28;20393;-85
2022/12/29 13:41:52;;;;;;;1.42;1.33;;;10.80;99.90;;;;;;5063261;28;20037;-83
2022/12/29 13:44:27;;;;;;;0.75;0.75;;;10.80;99.90;;;;;;5066663;28;20037;-83
2022/12/29 13:46:56;;;;;;;0.10;0.10;;;10.80;99.90;;;;;;5063144;28;20085;-79
2022/12/29 13:49:26;;;;;;;14.43;3.92;;;10.80;99.90;;;;;;5065614;28;20594;-87